sensor_id;sensor_type;location;lat;lon;timestamp;P1;durP1;ratioP1;P2;durP2;ratioP2
77016;SDS011;65949;53.132;17.930;2022-12-15T00:01:42;72.40;;;26.50;;
77016;SDS011;65949;53.132;17.930;2022-12-15T00:04:27;91.60;;;30.30;;
77016;SDS011;65949;53.132;17.930;2022-12-15T00:07:13;87.00;;;30.00;;
77016;SDS011;65949;53.132;17.930;2022-12-15T00:09:58;86.20;;;28.80;;
77016;SDS011;65949;53.132;17.930;2022-12-15T00:12:43;78.20;;;25.60;;
77016;SDS011;65949;53.132;17.930;2022-12-15T00:15:29;92.60;;;30.90;;
77016;SDS011;65949;53.132;17.930;2022-12-15T00:18:14;110.40;;;33.60;;
77016;SDS011;65949;53.132;17.930;2022-12-15T00:21:00;105.90;;;31.20;;
77016;SDS011;65949;53.132;17.930;2022-12-15T00:23:45;101.80;;;27.70;;
77016;SDS011;65949;53.132;17.930;2022-12-15T00:26:31;83.50;;;26.60;;
77016;SDS011;65949;53.132;17.930;2022-12-15T00:29:16;67.90;;;23.50;;
77016;SDS011;65949;53.132;17.930;2022-12-15T00:32:02;72.40;;;23.50;;
77016;SDS011;65949;53.132;17.930;2022-12-15T00:34:47;73.00;;;24.10;;
77016;SDS011;65949;53.132;17.930;2022-12-15T00:37:33;73.00;;;23.90;;
77016;SDS011;65949;53.132;17.930;2022-12-15T00:40:18;82.30;;;24.70;;
77016;SDS011;65949;53.132;17.930;2022-12-15T00:42:45;79.90;;;25.90;;
77016;SDS011;65949;53.132;17.930;2022-12-15T00:45:11;67.10;;;23.20;;
77016;SDS011;65949;53.132;17.930;2022-12-15T00:47:38;83.50;;;24.30;;
77016;SDS011;65949;53.132;17.930;2022-12-15T00:50:05;104.60;;;26.50;;
77016;SDS011;65949;53.132;17.930;2022-12-15T00:52:50;71.20;;;24.20;;
77016;SDS011;65949;53.132;17.930;2022-12-15T00:55:36;70.40;;;22.60;;
77016;SDS011;65949;53.132;17.930;2022-12-15T00:58:21;76.70;;;23.50;;
77016;SDS011;65949;53.132;17.930;2022-12-15T01:01:07;72.20;;;23.70;;
77016;SDS011;65949;53.132;17.930;2022-12-15T01:03:53;85.90;;;24.20;;
77016;SDS011;65949;53.132;17.930;2022-12-15T01:06:39;68.60;;;22.10;;
77016;SDS011;65949;53.132;17.930;2022-12-15T01:09:24;72.70;;;23.80;;
77016;SDS011;65949;53.132;17.930;2022-12-15T01:12:10;68.60;;;22.40;;
77016;SDS011;65949;53.132;17.930;2022-12-15T01:14:55;71.80;;;23.60;;
77016;SDS011;65949;53.132;17.930;2022-12-15T01:17:41;103.10;;;25.60;;
77016;SDS011;65949;53.132;17.930;2022-12-15T01:20:26;76.20;;;23.50;;
77016;SDS011;65949;53.132;17.930;2022-12-15T01:22:53;68.40;;;22.30;;
77016;SDS011;65949;53.132;17.930;2022-12-15T01:25:22;67.60;;;22.50;;
77016;SDS011;65949;53.132;17.930;2022-12-15T01:27:50;75.40;;;24.50;;
77016;SDS011;65949;53.132;17.930;2022-12-15T01:30:18;85.20;;;24.90;;
77016;SDS011;65949;53.132;17.930;2022-12-15T01:32:47;87.80;;;24.30;;
77016;SDS011;65949;53.132;17.930;2022-12-15T01:35:14;73.70;;;22.40;;
77016;SDS011;65949;53.132;17.930;2022-12-15T01:37:41;71.00;;;23.30;;
77016;SDS011;65949;53.132;17.930;2022-12-15T01:40:10;67.60;;;22.40;;
77016;SDS011;65949;53.132;17.930;2022-12-15T01:42:58;71.20;;;21.90;;
77016;SDS011;65949;53.132;17.930;2022-12-15T01:50:30;61.20;;;20.20;;
77016;SDS011;65949;53.132;17.930;2022-12-15T01:53:01;63.70;;;22.20;;
77016;SDS011;65949;53.132;17.930;2022-12-15T01:55:28;69.80;;;23.40;;
77016;SDS011;65949;53.132;17.930;2022-12-15T01:57:57;72.90;;;25.30;;
77016;SDS011;65949;53.132;17.930;2022-12-15T02:00:29;66.90;;;23.20;;
77016;SDS011;65949;53.132;17.930;2022-12-15T02:02:56;65.30;;;22.70;;
77016;SDS011;65949;53.132;17.930;2022-12-15T02:05:26;65.70;;;22.60;;
77016;SDS011;65949;53.132;17.930;2022-12-15T02:07:55;75.60;;;25.60;;
77016;SDS011;65949;53.132;17.930;2022-12-15T02:10:22;76.60;;;26.30;;
77016;SDS011;65949;53.132;17.930;2022-12-15T02:32:25;87.40;;;26.50;;
77016;SDS011;65949;53.132;17.930;2022-12-15T02:34:59;82.80;;;26.40;;
77016;SDS011;65949;53.132;17.930;2022-12-15T02:37:32;79.40;;;25.50;;
77016;SDS011;65949;53.132;17.930;2022-12-15T02:40:02;78.10;;;25.90;;
77016;SDS011;65949;53.132;17.930;2022-12-15T02:42:31;77.20;;;26.80;;
77016;SDS011;65949;53.132;17.930;2022-12-15T02:45:04;79.40;;;23.50;;
77016;SDS011;65949;53.132;17.930;2022-12-15T02:50:37;60.90;;;21.20;;
77016;SDS011;65949;53.132;17.930;2022-12-15T02:53:18;54.00;;;19.80;;
77016;SDS011;65949;53.132;17.930;2022-12-15T02:55:58;66.80;;;22.40;;
77016;SDS011;65949;53.132;17.930;2022-12-15T02:58:58;57.10;;;20.00;;
77016;SDS011;65949;53.132;17.930;2022-12-15T03:02:05;52.60;;;20.20;;
77016;SDS011;65949;53.132;17.930;2022-12-15T03:04:35;59.50;;;20.00;;
77016;SDS011;65949;53.132;17.930;2022-12-15T03:07:07;58.10;;;20.10;;
77016;SDS011;65949;53.132;17.930;2022-12-15T03:09:35;56.30;;;19.80;;
77016;SDS011;65949;53.132;17.930;2022-12-15T03:12:02;51.90;;;18.70;;
77016;SDS011;65949;53.132;17.930;2022-12-15T03:14:29;52.80;;;18.80;;
77016;SDS011;65949;53.132;17.930;2022-12-15T03:16:55;57.80;;;19.10;;
77016;SDS011;65949;53.132;17.930;2022-12-15T03:19:22;82.00;;;27.30;;
77016;SDS011;65949;53.132;17.930;2022-12-15T03:21:49;87.60;;;29.60;;
77016;SDS011;65949;53.132;17.930;2022-12-15T03:24:16;84.20;;;29.10;;
77016;SDS011;65949;53.132;17.930;2022-12-15T03:26:42;94.20;;;35.00;;
77016;SDS011;65949;53.132;17.930;2022-12-15T03:29:09;107.40;;;36.50;;
77016;SDS011;65949;53.132;17.930;2022-12-15T03:31:36;182.30;;;62.40;;
77016;SDS011;65949;53.132;17.930;2022-12-15T03:34:02;208.40;;;72.20;;
77016;SDS011;65949;53.132;17.930;2022-12-15T03:36:29;154.60;;;51.30;;
77016;SDS011;65949;53.132;17.930;2022-12-15T03:38:56;181.00;;;57.50;;
77016;SDS011;65949;53.132;17.930;2022-12-15T03:41:22;306.10;;;104.10;;
77016;SDS011;65949;53.132;17.930;2022-12-15T03:43:49;238.00;;;76.30;;
77016;SDS011;65949;53.132;17.930;2022-12-15T03:46:16;189.80;;;58.70;;
77016;SDS011;65949;53.132;17.930;2022-12-15T03:48:42;134.50;;;42.90;;
77016;SDS011;65949;53.132;17.930;2022-12-15T03:51:09;102.20;;;33.60;;
77016;SDS011;65949;53.132;17.930;2022-12-15T03:53:36;84.90;;;27.60;;
77016;SDS011;65949;53.132;17.930;2022-12-15T03:56:02;86.40;;;28.70;;
77016;SDS011;65949;53.132;17.930;2022-12-15T03:58:29;81.10;;;26.80;;
77016;SDS011;65949;53.132;17.930;2022-12-15T04:00:56;80.30;;;24.10;;
77016;SDS011;65949;53.132;17.930;2022-12-15T04:03:22;69.30;;;24.70;;
77016;SDS011;65949;53.132;17.930;2022-12-15T04:05:49;75.40;;;23.30;;
77016;SDS011;65949;53.132;17.930;2022-12-15T04:08:16;65.40;;;21.90;;
77016;SDS011;65949;53.132;17.930;2022-12-15T04:10:43;67.20;;;22.20;;
77016;SDS011;65949;53.132;17.930;2022-12-15T04:13:10;61.80;;;23.20;;
77016;SDS011;65949;53.132;17.930;2022-12-15T04:15:37;70.70;;;24.80;;
77016;SDS011;65949;53.132;17.930;2022-12-15T04:18:06;73.90;;;24.70;;
77016;SDS011;65949;53.132;17.930;2022-12-15T04:20:38;75.90;;;26.50;;
77016;SDS011;65949;53.132;17.930;2022-12-15T04:23:05;76.00;;;27.80;;
77016;SDS011;65949;53.132;17.930;2022-12-15T04:25:33;74.20;;;25.70;;
77016;SDS011;65949;53.132;17.930;2022-12-15T04:28:19;71.10;;;25.40;;
77016;SDS011;65949;53.132;17.930;2022-12-15T04:31:09;75.50;;;24.30;;
77016;SDS011;65949;53.132;17.930;2022-12-15T04:33:58;67.90;;;23.40;;
77016;SDS011;65949;53.132;17.930;2022-12-15T04:36:46;73.00;;;24.10;;
77016;SDS011;65949;53.132;17.930;2022-12-15T04:39:40;65.80;;;22.80;;
77016;SDS011;65949;53.132;17.930;2022-12-15T04:42:29;82.80;;;27.10;;
77016;SDS011;65949;53.132;17.930;2022-12-15T04:45:18;68.90;;;25.00;;
77016;SDS011;65949;53.132;17.930;2022-12-15T04:48:07;81.00;;;28.60;;
77016;SDS011;65949;53.132;17.930;2022-12-15T04:50:52;77.60;;;28.30;;
77016;SDS011;65949;53.132;17.930;2022-12-15T04:53:38;88.00;;;30.10;;
77016;SDS011;65949;53.132;17.930;2022-12-15T04:56:24;74.60;;;26.10;;
77016;SDS011;65949;53.132;17.930;2022-12-15T04:59:09;74.20;;;25.30;;
77016;SDS011;65949;53.132;17.930;2022-12-15T05:01:55;70.80;;;23.80;;
77016;SDS011;65949;53.132;17.930;2022-12-15T05:04:40;53.30;;;18.20;;
77016;SDS011;65949;53.132;17.930;2022-12-15T05:07:26;82.60;;;27.70;;
77016;SDS011;65949;53.132;17.930;2022-12-15T05:10:11;77.00;;;26.50;;
77016;SDS011;65949;53.132;17.930;2022-12-15T05:13:03;69.30;;;24.50;;
77016;SDS011;65949;53.132;17.930;2022-12-15T05:15:49;83.00;;;25.10;;
77016;SDS011;65949;53.132;17.930;2022-12-15T05:18:35;80.90;;;23.40;;
77016;SDS011;65949;53.132;17.930;2022-12-15T05:21:21;77.10;;;25.40;;
77016;SDS011;65949;53.132;17.930;2022-12-15T05:24:06;74.70;;;24.60;;
77016;SDS011;65949;53.132;17.930;2022-12-15T05:26:52;82.10;;;26.00;;
77016;SDS011;65949;53.132;17.930;2022-12-15T05:29:37;90.50;;;27.60;;
77016;SDS011;65949;53.132;17.930;2022-12-15T05:32:22;81.40;;;24.40;;
77016;SDS011;65949;53.132;17.930;2022-12-15T05:34:49;65.50;;;22.10;;
77016;SDS011;65949;53.132;17.930;2022-12-15T05:37:16;80.50;;;26.40;;
77016;SDS011;65949;53.132;17.930;2022-12-15T05:39:45;71.80;;;24.90;;
77016;SDS011;65949;53.132;17.930;2022-12-15T05:42:12;73.50;;;26.00;;
77016;SDS011;65949;53.132;17.930;2022-12-15T05:44:39;63.40;;;22.70;;
77016;SDS011;65949;53.132;17.930;2022-12-15T05:47:06;66.50;;;22.00;;
77016;SDS011;65949;53.132;17.930;2022-12-15T05:49:34;73.80;;;22.40;;
77016;SDS011;65949;53.132;17.930;2022-12-15T05:52:01;66.70;;;22.00;;
77016;SDS011;65949;53.132;17.930;2022-12-15T05:54:28;49.50;;;15.70;;
77016;SDS011;65949;53.132;17.930;2022-12-15T05:56:55;67.10;;;20.50;;
77016;SDS011;65949;53.132;17.930;2022-12-15T05:59:21;71.10;;;23.80;;
77016;SDS011;65949;53.132;17.930;2022-12-15T06:01:48;61.70;;;21.70;;
77016;SDS011;65949;53.132;17.930;2022-12-15T06:04:15;68.70;;;23.00;;
77016;SDS011;65949;53.132;17.930;2022-12-15T06:06:41;70.90;;;24.20;;
77016;SDS011;65949;53.132;17.930;2022-12-15T06:09:08;79.70;;;26.50;;
77016;SDS011;65949;53.132;17.930;2022-12-15T06:11:35;73.00;;;23.30;;
77016;SDS011;65949;53.132;17.930;2022-12-15T06:14:02;69.60;;;23.70;;
77016;SDS011;65949;53.132;17.930;2022-12-15T06:16:29;68.50;;;23.10;;
77016;SDS011;65949;53.132;17.930;2022-12-15T06:18:58;80.00;;;25.00;;
77016;SDS011;65949;53.132;17.930;2022-12-15T06:21:27;61.70;;;20.00;;
77016;SDS011;65949;53.132;17.930;2022-12-15T06:23:56;82.30;;;24.60;;
77016;SDS011;65949;53.132;17.930;2022-12-15T06:26:24;75.30;;;24.50;;
77016;SDS011;65949;53.132;17.930;2022-12-15T06:28:54;76.10;;;21.90;;
77016;SDS011;65949;53.132;17.930;2022-12-15T06:31:22;95.10;;;29.50;;
77016;SDS011;65949;53.132;17.930;2022-12-15T06:33:51;71.50;;;21.90;;
77016;SDS011;65949;53.132;17.930;2022-12-15T06:36:18;58.40;;;20.10;;
77016;SDS011;65949;53.132;17.930;2022-12-15T06:38:46;15.10;;;4.90;;
77016;SDS011;65949;53.132;17.930;2022-12-15T06:41:14;67.00;;;21.40;;
77016;SDS011;65949;53.132;17.930;2022-12-15T06:43:43;66.20;;;21.20;;
77016;SDS011;65949;53.132;17.930;2022-12-15T06:46:15;68.40;;;22.40;;
77016;SDS011;65949;53.132;17.930;2022-12-15T06:48:41;71.00;;;21.90;;
77016;SDS011;65949;53.132;17.930;2022-12-15T06:51:11;65.10;;;22.80;;
77016;SDS011;65949;53.132;17.930;2022-12-15T06:53:39;68.50;;;23.80;;
77016;SDS011;65949;53.132;17.930;2022-12-15T06:56:09;74.10;;;25.30;;
77016;SDS011;65949;53.132;17.930;2022-12-15T06:58:49;66.70;;;22.50;;
77016;SDS011;65949;53.132;17.930;2022-12-15T07:01:18;73.70;;;23.80;;
77016;SDS011;65949;53.132;17.930;2022-12-15T07:03:47;74.60;;;24.70;;
77016;SDS011;65949;53.132;17.930;2022-12-15T07:06:14;78.60;;;26.70;;
77016;SDS011;65949;53.132;17.930;2022-12-15T07:08:42;69.50;;;23.50;;
77016;SDS011;65949;53.132;17.930;2022-12-15T07:11:13;72.70;;;24.20;;
77016;SDS011;65949;53.132;17.930;2022-12-15T07:13:40;67.20;;;24.60;;
77016;SDS011;65949;53.132;17.930;2022-12-15T07:16:08;80.20;;;27.50;;
77016;SDS011;65949;53.132;17.930;2022-12-15T07:18:36;72.30;;;26.60;;
77016;SDS011;65949;53.132;17.930;2022-12-15T07:21:03;61.60;;;20.80;;
77016;SDS011;65949;53.132;17.930;2022-12-15T07:23:32;80.20;;;28.80;;
77016;SDS011;65949;53.132;17.930;2022-12-15T07:26:04;67.80;;;23.20;;
77016;SDS011;65949;53.132;17.930;2022-12-15T07:28:35;82.90;;;29.90;;
77016;SDS011;65949;53.132;17.930;2022-12-15T07:31:06;76.90;;;25.60;;
77016;SDS011;65949;53.132;17.930;2022-12-15T07:33:34;73.20;;;22.90;;
77016;SDS011;65949;53.132;17.930;2022-12-15T07:36:03;99.30;;;31.00;;
77016;SDS011;65949;53.132;17.930;2022-12-15T07:38:31;90.90;;;26.50;;
77016;SDS011;65949;53.132;17.930;2022-12-15T07:41:05;129.40;;;43.50;;
77016;SDS011;65949;53.132;17.930;2022-12-15T07:43:33;81.70;;;25.70;;
77016;SDS011;65949;53.132;17.930;2022-12-15T07:46:01;63.00;;;22.20;;
77016;SDS011;65949;53.132;17.930;2022-12-15T07:48:28;23.80;;;7.40;;
77016;SDS011;65949;53.132;17.930;2022-12-15T07:50:55;69.80;;;23.20;;
77016;SDS011;65949;53.132;17.930;2022-12-15T07:53:25;53.00;;;18.00;;
77016;SDS011;65949;53.132;17.930;2022-12-15T07:55:53;79.80;;;24.60;;
77016;SDS011;65949;53.132;17.930;2022-12-15T07:58:25;125.30;;;41.50;;
77016;SDS011;65949;53.132;17.930;2022-12-15T08:00:52;74.60;;;25.50;;
77016;SDS011;65949;53.132;17.930;2022-12-15T08:03:24;79.30;;;27.30;;
77016;SDS011;65949;53.132;17.930;2022-12-15T08:05:50;77.80;;;26.20;;
77016;SDS011;65949;53.132;17.930;2022-12-15T08:08:17;71.60;;;24.60;;
77016;SDS011;65949;53.132;17.930;2022-12-15T08:10:44;67.70;;;22.80;;
77016;SDS011;65949;53.132;17.930;2022-12-15T08:13:12;72.00;;;24.80;;
77016;SDS011;65949;53.132;17.930;2022-12-15T08:15:39;74.90;;;26.80;;
77016;SDS011;65949;53.132;17.930;2022-12-15T08:18:07;77.40;;;27.70;;
77016;SDS011;65949;53.132;17.930;2022-12-15T08:20:34;69.40;;;23.70;;
77016;SDS011;65949;53.132;17.930;2022-12-15T08:23:01;71.30;;;25.40;;
77016;SDS011;65949;53.132;17.930;2022-12-15T08:25:28;72.10;;;25.40;;
77016;SDS011;65949;53.132;17.930;2022-12-15T08:27:55;78.70;;;28.30;;
77016;SDS011;65949;53.132;17.930;2022-12-15T08:30:22;73.60;;;26.90;;
77016;SDS011;65949;53.132;17.930;2022-12-15T08:32:50;76.70;;;28.10;;
77016;SDS011;65949;53.132;17.930;2022-12-15T08:35:16;63.10;;;21.50;;
77016;SDS011;65949;53.132;17.930;2022-12-15T08:37:43;84.30;;;29.30;;
77016;SDS011;65949;53.132;17.930;2022-12-15T08:40:10;123.30;;;41.20;;
77016;SDS011;65949;53.132;17.930;2022-12-15T08:42:38;61.90;;;21.00;;
77016;SDS011;65949;53.132;17.930;2022-12-15T08:45:05;73.60;;;26.60;;
77016;SDS011;65949;53.132;17.930;2022-12-15T08:47:32;76.70;;;24.50;;
77016;SDS011;65949;53.132;17.930;2022-12-15T08:49:59;76.30;;;22.90;;
77016;SDS011;65949;53.132;17.930;2022-12-15T08:52:26;77.90;;;25.70;;
77016;SDS011;65949;53.132;17.930;2022-12-15T08:54:53;327.40;;;92.30;;
77016;SDS011;65949;53.132;17.930;2022-12-15T08:57:20;594.20;;;201.50;;
77016;SDS011;65949;53.132;17.930;2022-12-15T08:59:47;235.80;;;69.60;;
77016;SDS011;65949;53.132;17.930;2022-12-15T09:02:14;439.20;;;122.90;;
77016;SDS011;65949;53.132;17.930;2022-12-15T09:04:41;362.00;;;103.70;;
77016;SDS011;65949;53.132;17.930;2022-12-15T09:07:09;155.90;;;51.80;;
77016;SDS011;65949;53.132;17.930;2022-12-15T09:09:36;124.10;;;48.40;;
77016;SDS011;65949;53.132;17.930;2022-12-15T09:12:03;311.80;;;118.10;;
77016;SDS011;65949;53.132;17.930;2022-12-15T09:14:31;97.30;;;34.20;;
77016;SDS011;65949;53.132;17.930;2022-12-15T09:16:58;107.60;;;37.00;;
77016;SDS011;65949;53.132;17.930;2022-12-15T09:19:24;91.50;;;35.90;;
77016;SDS011;65949;53.132;17.930;2022-12-15T09:21:51;78.90;;;30.20;;
77016;SDS011;65949;53.132;17.930;2022-12-15T09:24:18;84.30;;;35.80;;
77016;SDS011;65949;53.132;17.930;2022-12-15T09:26:44;92.30;;;38.60;;
77016;SDS011;65949;53.132;17.930;2022-12-15T09:29:11;84.20;;;31.00;;
77016;SDS011;65949;53.132;17.930;2022-12-15T09:31:38;66.10;;;23.80;;
77016;SDS011;65949;53.132;17.930;2022-12-15T09:34:05;62.60;;;21.50;;
77016;SDS011;65949;53.132;17.930;2022-12-15T09:36:32;85.80;;;29.20;;
77016;SDS011;65949;53.132;17.930;2022-12-15T09:38:59;91.40;;;28.60;;
77016;SDS011;65949;53.132;17.930;2022-12-15T09:41:30;53.40;;;17.10;;
77016;SDS011;65949;53.132;17.930;2022-12-15T09:44:04;82.10;;;26.80;;
77016;SDS011;65949;53.132;17.930;2022-12-15T09:46:42;92.90;;;33.70;;
77016;SDS011;65949;53.132;17.930;2022-12-15T09:49:52;100.20;;;33.60;;
77016;SDS011;65949;53.132;17.930;2022-12-15T09:52:21;82.00;;;28.30;;
77016;SDS011;65949;53.132;17.930;2022-12-15T09:54:49;62.80;;;23.30;;
77016;SDS011;65949;53.132;17.930;2022-12-15T10:08:14;137.80;;;52.90;;
77016;SDS011;65949;53.132;17.930;2022-12-15T10:10:46;81.00;;;29.10;;
77016;SDS011;65949;53.132;17.930;2022-12-15T10:13:32;136.30;;;62.00;;
77016;SDS011;65949;53.132;17.930;2022-12-15T10:18:58;72.90;;;25.10;;
77016;SDS011;65949;53.132;17.930;2022-12-15T10:21:37;48.20;;;15.20;;
77016;SDS011;65949;53.132;17.930;2022-12-15T10:24:19;79.90;;;27.90;;
77016;SDS011;65949;53.132;17.930;2022-12-15T10:26:52;78.50;;;26.10;;
77016;SDS011;65949;53.132;17.930;2022-12-15T10:29:44;53.20;;;17.70;;
77016;SDS011;65949;53.132;17.930;2022-12-15T10:34:43;56.50;;;20.60;;
77016;SDS011;65949;53.132;17.930;2022-12-15T10:37:12;75.50;;;24.90;;
77016;SDS011;65949;53.132;17.930;2022-12-15T10:39:42;83.80;;;26.10;;
77016;SDS011;65949;53.132;17.930;2022-12-15T10:44:49;87.00;;;32.00;;
77016;SDS011;65949;53.132;17.930;2022-12-15T10:47:29;78.20;;;29.20;;
77016;SDS011;65949;53.132;17.930;2022-12-15T10:52:50;80.60;;;29.40;;
77016;SDS011;65949;53.132;17.930;2022-12-15T10:58:03;74.40;;;26.30;;
77016;SDS011;65949;53.132;17.930;2022-12-15T11:01:04;91.70;;;31.70;;
77016;SDS011;65949;53.132;17.930;2022-12-15T11:03:40;87.70;;;31.10;;
77016;SDS011;65949;53.132;17.930;2022-12-15T11:06:13;103.70;;;38.60;;
77016;SDS011;65949;53.132;17.930;2022-12-15T11:08:42;91.60;;;34.20;;
77016;SDS011;65949;53.132;17.930;2022-12-15T11:14:23;105.00;;;37.10;;
77016;SDS011;65949;53.132;17.930;2022-12-15T11:16:54;296.20;;;100.20;;
77016;SDS011;65949;53.132;17.930;2022-12-15T11:22:00;119.50;;;41.70;;
77016;SDS011;65949;53.132;17.930;2022-12-15T11:24:38;118.50;;;42.30;;
77016;SDS011;65949;53.132;17.930;2022-12-15T11:27:16;100.90;;;35.30;;
77016;SDS011;65949;53.132;17.930;2022-12-15T11:32:27;93.30;;;35.00;;
77016;SDS011;65949;53.132;17.930;2022-12-15T11:34:57;85.90;;;36.50;;
77016;SDS011;65949;53.132;17.930;2022-12-15T11:37:40;363.90;;;153.80;;
77016;SDS011;65949;53.132;17.930;2022-12-15T11:40:20;188.30;;;74.90;;
77016;SDS011;65949;53.132;17.930;2022-12-15T11:42:59;179.50;;;77.20;;
77016;SDS011;65949;53.132;17.930;2022-12-15T11:51:11;97.50;;;35.10;;
77016;SDS011;65949;53.132;17.930;2022-12-15T11:53:52;84.70;;;31.40;;
77016;SDS011;65949;53.132;17.930;2022-12-15T11:56:36;96.90;;;34.10;;
77016;SDS011;65949;53.132;17.930;2022-12-15T12:19:05;348.50;;;119.40;;
77016;SDS011;65949;53.132;17.930;2022-12-15T12:21:44;220.00;;;87.70;;
77016;SDS011;65949;53.132;17.930;2022-12-15T12:26:59;104.00;;;39.70;;
77016;SDS011;65949;53.132;17.930;2022-12-15T12:29:33;116.40;;;43.50;;
77016;SDS011;65949;53.132;17.930;2022-12-15T12:32:25;89.40;;;34.20;;
77016;SDS011;65949;53.132;17.930;2022-12-15T12:37:50;104.60;;;37.70;;
77016;SDS011;65949;53.132;17.930;2022-12-15T12:43:32;113.60;;;40.50;;
77016;SDS011;65949;53.132;17.930;2022-12-15T12:46:09;107.30;;;37.90;;
77016;SDS011;65949;53.132;17.930;2022-12-15T12:49:07;103.20;;;37.40;;
77016;SDS011;65949;53.132;17.930;2022-12-15T12:51:51;56.30;;;21.40;;
77016;SDS011;65949;53.132;17.930;2022-12-15T12:56:59;109.70;;;38.40;;
77016;SDS011;65949;53.132;17.930;2022-12-15T12:59:42;97.20;;;34.70;;
77016;SDS011;65949;53.132;17.930;2022-12-15T13:04:48;95.80;;;33.70;;
77016;SDS011;65949;53.132;17.930;2022-12-15T13:07:36;96.70;;;34.40;;
77016;SDS011;65949;53.132;17.930;2022-12-15T13:18:09;153.90;;;52.80;;
77016;SDS011;65949;53.132;17.930;2022-12-15T13:20:38;135.60;;;50.90;;
77016;SDS011;65949;53.132;17.930;2022-12-15T13:25:42;98.70;;;40.30;;
77016;SDS011;65949;53.132;17.930;2022-12-15T13:39:50;195.90;;;59.40;;
77016;SDS011;65949;53.132;17.930;2022-12-15T13:46:50;158.20;;;54.00;;
77016;SDS011;65949;53.132;17.930;2022-12-15T13:49:30;96.60;;;41.40;;
77016;SDS011;65949;53.132;17.930;2022-12-15T13:52:02;71.90;;;27.20;;
77016;SDS011;65949;53.132;17.930;2022-12-15T13:54:40;81.90;;;30.10;;
77016;SDS011;65949;53.132;17.930;2022-12-15T13:57:14;65.10;;;26.70;;
77016;SDS011;65949;53.132;17.930;2022-12-15T14:05:03;125.40;;;42.30;;
77016;SDS011;65949;53.132;17.930;2022-12-15T14:07:58;119.40;;;48.30;;
77016;SDS011;65949;53.132;17.930;2022-12-15T14:10:46;78.70;;;32.30;;
77016;SDS011;65949;53.132;17.930;2022-12-15T14:13:21;91.70;;;39.70;;
77016;SDS011;65949;53.132;17.930;2022-12-15T14:16:33;67.50;;;27.00;;
77016;SDS011;65949;53.132;17.930;2022-12-15T14:18:40;56.70;;;19.80;;
77016;SDS011;65949;53.132;17.930;2022-12-15T14:21:21;60.40;;;21.80;;
77016;SDS011;65949;53.132;17.930;2022-12-15T14:23:52;52.20;;;19.10;;
77016;SDS011;65949;53.132;17.930;2022-12-15T14:26:23;53.60;;;19.40;;
77016;SDS011;65949;53.132;17.930;2022-12-15T14:28:58;58.20;;;20.60;;
77016;SDS011;65949;53.132;17.930;2022-12-15T14:31:26;71.60;;;23.90;;
77016;SDS011;65949;53.132;17.930;2022-12-15T14:34:14;127.20;;;40.60;;
77016;SDS011;65949;53.132;17.930;2022-12-15T14:36:56;59.50;;;20.20;;
77016;SDS011;65949;53.132;17.930;2022-12-15T14:39:35;125.00;;;40.50;;
77016;SDS011;65949;53.132;17.930;2022-12-15T14:42:13;77.40;;;26.20;;
77016;SDS011;65949;53.132;17.930;2022-12-15T14:44:44;57.40;;;21.10;;
77016;SDS011;65949;53.132;17.930;2022-12-15T14:47:17;59.00;;;22.50;;
77016;SDS011;65949;53.132;17.930;2022-12-15T14:49:52;55.80;;;19.40;;
77016;SDS011;65949;53.132;17.930;2022-12-15T14:52:24;62.30;;;21.80;;
77016;SDS011;65949;53.132;17.930;2022-12-15T14:54:59;56.90;;;21.20;;
77016;SDS011;65949;53.132;17.930;2022-12-15T14:57:44;60.60;;;22.20;;
77016;SDS011;65949;53.132;17.930;2022-12-15T15:05:49;63.30;;;22.40;;
77016;SDS011;65949;53.132;17.930;2022-12-15T15:08:29;61.00;;;21.90;;
77016;SDS011;65949;53.132;17.930;2022-12-15T15:11:02;56.50;;;20.30;;
77016;SDS011;65949;53.132;17.930;2022-12-15T15:13:45;37.40;;;12.70;;
77016;SDS011;65949;53.132;17.930;2022-12-15T15:16:14;81.60;;;27.90;;
77016;SDS011;65949;53.132;17.930;2022-12-15T15:18:43;67.00;;;24.40;;
77016;SDS011;65949;53.132;17.930;2022-12-15T15:21:20;57.30;;;23.60;;
77016;SDS011;65949;53.132;17.930;2022-12-15T15:26:34;50.70;;;19.20;;
77016;SDS011;65949;53.132;17.930;2022-12-15T15:29:02;47.30;;;19.20;;
77016;SDS011;65949;53.132;17.930;2022-12-15T15:31:33;89.30;;;26.30;;
77016;SDS011;65949;53.132;17.930;2022-12-15T15:34:01;145.10;;;38.50;;
77016;SDS011;65949;53.132;17.930;2022-12-15T15:36:33;156.20;;;42.80;;
77016;SDS011;65949;53.132;17.930;2022-12-15T15:39:02;106.50;;;37.00;;
77016;SDS011;65949;53.132;17.930;2022-12-15T15:41:35;63.00;;;24.50;;
77016;SDS011;65949;53.132;17.930;2022-12-15T15:44:05;61.80;;;23.90;;
77016;SDS011;65949;53.132;17.930;2022-12-15T15:46:50;73.10;;;26.90;;
77016;SDS011;65949;53.132;17.930;2022-12-15T15:49:18;60.90;;;23.20;;
77016;SDS011;65949;53.132;17.930;2022-12-15T15:51:47;60.90;;;23.30;;
77016;SDS011;65949;53.132;17.930;2022-12-15T15:54:15;61.50;;;21.60;;
77016;SDS011;65949;53.132;17.930;2022-12-15T15:56:46;55.60;;;20.70;;
77016;SDS011;65949;53.132;17.930;2022-12-15T15:59:14;54.60;;;22.20;;
77016;SDS011;65949;53.132;17.930;2022-12-15T16:01:42;61.10;;;22.10;;
77016;SDS011;65949;53.132;17.930;2022-12-15T16:04:10;55.00;;;20.80;;
77016;SDS011;65949;53.132;17.930;2022-12-15T16:06:37;62.90;;;22.30;;
77016;SDS011;65949;53.132;17.930;2022-12-15T16:09:04;53.40;;;20.20;;
77016;SDS011;65949;53.132;17.930;2022-12-15T16:11:34;51.20;;;19.20;;
77016;SDS011;65949;53.132;17.930;2022-12-15T16:14:01;45.60;;;17.90;;
77016;SDS011;65949;53.132;17.930;2022-12-15T16:16:30;59.90;;;22.70;;
77016;SDS011;65949;53.132;17.930;2022-12-15T16:18:58;66.20;;;24.00;;
77016;SDS011;65949;53.132;17.930;2022-12-15T16:21:25;68.40;;;25.00;;
77016;SDS011;65949;53.132;17.930;2022-12-15T16:23:53;73.70;;;27.70;;
77016;SDS011;65949;53.132;17.930;2022-12-15T16:26:29;46.20;;;17.90;;
77016;SDS011;65949;53.132;17.930;2022-12-15T16:28:58;91.70;;;27.40;;
77016;SDS011;65949;53.132;17.930;2022-12-15T16:31:29;175.20;;;44.90;;
77016;SDS011;65949;53.132;17.930;2022-12-15T16:33:57;182.90;;;51.70;;
77016;SDS011;65949;53.132;17.930;2022-12-15T16:36:24;152.20;;;48.00;;
77016;SDS011;65949;53.132;17.930;2022-12-15T16:38:51;75.10;;;30.10;;
77016;SDS011;65949;53.132;17.930;2022-12-15T16:41:17;56.20;;;22.90;;
77016;SDS011;65949;53.132;17.930;2022-12-15T16:43:44;61.40;;;21.90;;
77016;SDS011;65949;53.132;17.930;2022-12-15T16:46:11;58.30;;;22.60;;
77016;SDS011;65949;53.132;17.930;2022-12-15T16:48:38;66.90;;;25.70;;
77016;SDS011;65949;53.132;17.930;2022-12-15T16:51:06;58.50;;;19.80;;
77016;SDS011;65949;53.132;17.930;2022-12-15T16:53:36;111.50;;;29.70;;
77016;SDS011;65949;53.132;17.930;2022-12-15T16:56:04;137.10;;;35.10;;
77016;SDS011;65949;53.132;17.930;2022-12-15T16:58:33;125.30;;;35.40;;
77016;SDS011;65949;53.132;17.930;2022-12-15T17:01:01;99.00;;;30.00;;